Terminal Aerodrome Forecast
Issued by NWS

Home | Current Version | Previous Version | Graphics & Text | Print | Product List | Glossary On
Versions: 1 2 3 4 5 6 7 8 9 10 11 12 13 14
000
FTUS43 KICT 261957 AAA
TAFCNU
TAF AMD
KCNU 261957Z 2620/2718 27014KT P6SM SKC
     FM262200 30012KT P6SM SKC
     FM270000 32005KT P6SM SKC
     FM271400 VRB03KT P6SM SKC=

USA.gov is the U.S. government's official web portal to all federal, state and local government web resources and services.